Terminal Aerodrome Forecast
Issued by NWS Sterling, VA

Current Version | Previous Version | Graphics & Text | Print | Product List | Glossary On
Versions: 1 2 3 4 5 6 7 8 9 10 11 12 13 14 15 16 17 18 19 20 21 22 23 24 25 26 27 28
000
FTUS41 KLWX 051742
TAFDCA
TAF
KDCA 051742Z 0518/0618 16006KT P6SM BKN025
     FM052000 15006KT P6SM BKN040
     FM060700 VRB03KT P6SM VCSH SCT020 BKN060
     FM061000 09006KT 5SM -SHRA BKN020
     FM061400 12007KT P6SM BKN040=

USA.gov is the U.S. government's official web portal to all federal, state and local government web resources and services.